createdAt,value
2022-11-15T00:01:00.792Z,2.35
2022-11-15T00:03:59.688Z,2.42
2022-11-15T00:06:53.331Z,2.78
2022-11-15T00:09:46.825Z,2.63
2022-11-15T00:12:42.082Z,2.47
2022-11-15T00:15:35.507Z,2.50
2022-11-15T00:18:29.673Z,2.10
2022-11-15T00:21:23.755Z,2.45
2022-11-15T00:24:16.649Z,2.60
2022-11-15T00:27:12.854Z,2.50
2022-11-15T00:30:09.484Z,2.58
2022-11-15T00:33:02.909Z,2.58
2022-11-15T00:35:55.470Z,2.22
2022-11-15T00:38:49.188Z,2.50
2022-11-15T00:41:43.466Z,2.15
2022-11-15T00:44:36.917Z,2.35
2022-11-15T00:47:32.039Z,2.35
2022-11-15T00:50:25.636Z,2.38
2022-11-15T00:53:20.558Z,2.22
2022-11-15T00:56:12.928Z,2.40
2022-11-15T00:59:05.475Z,2.90
2022-11-15T01:01:58.532Z,2.40
2022-11-15T01:04:54.449Z,2.70
2022-11-15T01:07:50.008Z,2.20
2022-11-15T01:10:44.437Z,2.80
2022-11-15T01:13:41.950Z,3.35
2022-11-15T01:16:36.693Z,4.15
2022-11-15T01:19:30.702Z,3.55
2022-11-15T01:22:26.639Z,3.72
2022-11-15T01:25:20.493Z,3.00
2022-11-15T01:28:15.054Z,2.90
2022-11-15T01:31:10.881Z,3.25
2022-11-15T01:34:06.366Z,2.63
2022-11-15T01:36:59.010Z,2.83
2022-11-15T01:39:54.357Z,2.97
2022-11-15T01:42:48.091Z,2.50
2022-11-15T01:45:43.113Z,2.80
2022-11-15T01:48:38.604Z,2.42
2022-11-15T01:51:34.706Z,2.72
2022-11-15T01:54:29.703Z,3.05
2022-11-15T01:57:25.191Z,2.97
2022-11-15T02:00:18.978Z,3.20
2022-11-15T02:03:11.911Z,2.78
2022-11-15T02:06:06.040Z,2.50
2022-11-15T02:09:00.053Z,3.00
2022-11-15T02:11:53.652Z,2.72
2022-11-15T02:14:49.513Z,3.10
2022-11-15T02:17:58.474Z,2.60
2022-11-15T02:21:08.343Z,2.42
2022-11-15T02:24:15.462Z,2.75
2022-11-15T02:27:26.512Z,2.47
2022-11-15T02:30:36.325Z,2.47
2022-11-15T02:33:34.249Z,2.63
2022-11-15T02:36:31.637Z,2.25
2022-11-15T02:39:28.351Z,2.90
2022-11-15T02:42:41.748Z,2.10
2022-11-15T02:45:41.561Z,2.60
2022-11-15T02:48:35.220Z,2.70
2022-11-15T02:51:29.179Z,2.80
2022-11-15T02:54:24.739Z,2.20
2022-11-15T02:57:20.920Z,2.40
2022-11-15T03:00:17.062Z,3.05
2022-11-15T03:03:26.485Z,2.40
2022-11-15T03:06:26.916Z,2.20
2022-11-15T03:09:24.291Z,2.22
2022-11-15T03:12:19.454Z,2.60
2022-11-15T03:15:15.291Z,2.50
2022-11-15T03:18:11.379Z,2.50
2022-11-15T03:21:06.204Z,2.75
2022-11-15T03:24:01.441Z,2.75
2022-11-15T03:26:59.543Z,2.53
2022-11-15T03:29:54.900Z,2.60
2022-11-15T03:32:55.122Z,2.60
2022-11-15T03:35:51.714Z,2.50
2022-11-15T03:38:46.319Z,2.50
2022-11-15T03:41:45.109Z,2.63
2022-11-15T03:44:41.729Z,2.03
2022-11-15T03:47:36.185Z,2.25
2022-11-15T03:50:31.623Z,2.85
2022-11-15T03:53:24.573Z,2.65
2022-11-15T03:56:18.207Z,2.97
2022-11-15T03:59:13.278Z,2.42
2022-11-15T04:02:08.611Z,2.70
2022-11-15T04:05:01.970Z,2.78
2022-11-15T04:07:57.263Z,2.30
2022-11-15T04:10:51.209Z,2.40
2022-11-15T04:13:49.478Z,2.53
2022-11-15T04:16:45.412Z,2.55
2022-11-15T04:19:54.707Z,2.53
2022-11-15T04:23:04.133Z,2.70
2022-11-15T04:26:01.379Z,2.70
2022-11-15T04:29:10.816Z,2.92
2022-11-15T04:32:06.356Z,3.03
2022-11-15T04:35:00.352Z,2.50
2022-11-15T04:37:56.052Z,2.83
2022-11-15T04:40:49.293Z,2.83
2022-11-15T04:43:43.021Z,2.47
2022-11-15T04:46:36.303Z,2.70
2022-11-15T04:49:33.455Z,1.92
2022-11-15T04:52:27.223Z,2.17
2022-11-15T04:55:21.624Z,2.20
2022-11-15T04:58:17.523Z,2.53
2022-11-15T05:01:15.108Z,2.72
2022-11-15T05:04:26.552Z,2.30
2022-11-15T05:07:25.358Z,2.67
2022-11-15T05:10:21.031Z,2.67
2022-11-15T05:13:15.073Z,2.33
2022-11-15T05:16:08.968Z,2.50
2022-11-15T05:19:02.424Z,2.30
2022-11-15T05:21:58.600Z,2.70
2022-11-15T05:24:54.220Z,2.25
2022-11-15T05:27:47.631Z,2.40
2022-11-15T05:30:40.704Z,2.10
2022-11-15T05:33:38.178Z,2.58
2022-11-15T05:36:36.406Z,2.30
2022-11-15T05:39:29.965Z,2.45
2022-11-15T05:42:29.927Z,2.25
2022-11-15T05:45:27.070Z,2.40
2022-11-15T05:48:22.925Z,2.50
2022-11-15T05:51:15.636Z,2.30
2022-11-15T05:54:09.536Z,2.42
2022-11-15T05:57:03.022Z,2.47
2022-11-15T05:59:58.606Z,2.42
2022-11-15T06:02:51.102Z,2.38
2022-11-15T06:05:44.674Z,2.60
2022-11-15T06:08:37.752Z,2.53
2022-11-15T06:11:30.225Z,2.60
2022-11-15T06:14:24.202Z,2.85
2022-11-15T06:17:19.844Z,3.00
2022-11-15T06:20:15.164Z,2.97
2022-11-15T06:23:11.277Z,3.00
2022-11-15T06:26:05.189Z,3.05
2022-11-15T06:28:58.570Z,2.85
2022-11-15T06:31:52.049Z,2.55
2022-11-15T06:34:46.992Z,3.05
2022-11-15T06:37:40.319Z,2.70
2022-11-15T06:40:34.852Z,2.92
2022-11-15T06:43:28.439Z,2.92
2022-11-15T06:46:21.408Z,2.70
2022-11-15T06:49:15.381Z,2.70
2022-11-15T06:52:12.291Z,2.70
2022-11-15T06:55:07.589Z,2.92
2022-11-15T06:58:01.408Z,2.70
2022-11-15T07:00:55.381Z,3.20
2022-11-15T07:03:50.488Z,2.55
2022-11-15T07:06:44.205Z,3.22
2022-11-15T07:09:40.360Z,3.08
2022-11-15T07:12:33.634Z,3.10
2022-11-15T07:15:30.064Z,3.42
2022-11-15T07:18:24.484Z,3.05
2022-11-15T07:21:19.694Z,2.50
2022-11-15T07:24:16.054Z,3.00
2022-11-15T07:27:12.970Z,3.50
2022-11-15T07:30:07.149Z,3.13
2022-11-15T07:33:01.887Z,2.90
2022-11-15T07:35:55.563Z,2.92
2022-11-15T07:38:52.325Z,3.10
2022-11-15T07:41:49.095Z,2.90
2022-11-15T07:44:46.279Z,2.88
2022-11-15T07:47:40.378Z,3.20
2022-11-15T07:50:36.745Z,2.92
2022-11-15T07:53:31.666Z,3.30
2022-11-15T07:56:25.449Z,3.38
2022-11-15T07:59:19.518Z,3.53
2022-11-15T08:02:19.476Z,3.17
2022-11-15T08:05:14.236Z,4.78
2022-11-15T08:08:08.334Z,3.60
2022-11-15T08:11:03.848Z,3.80
2022-11-15T08:13:58.249Z,3.40
2022-11-15T08:16:53.362Z,3.03
2022-11-15T08:19:49.950Z,3.08
2022-11-15T08:22:44.341Z,3.40
2022-11-15T08:25:39.873Z,3.33
2022-11-15T08:28:34.300Z,4.50
2022-11-15T08:31:27.471Z,3.47
2022-11-15T08:34:21.503Z,3.40
2022-11-15T08:37:18.340Z,3.75
2022-11-15T08:40:14.518Z,3.75
2022-11-15T08:43:08.419Z,3.47
2022-11-15T08:46:04.031Z,3.45
2022-11-15T08:48:58.040Z,3.47
2022-11-15T08:51:52.213Z,3.70
2022-11-15T08:54:47.396Z,3.30
2022-11-15T08:57:41.157Z,3.17
2022-11-15T09:00:34.374Z,2.88
2022-11-15T09:03:29.403Z,3.38
2022-11-15T09:06:23.794Z,3.83
2022-11-15T09:09:16.871Z,3.50
2022-11-15T09:12:13.130Z,3.42
2022-11-15T09:15:06.572Z,3.13
2022-11-15T09:18:03.715Z,3.05
2022-11-15T09:21:00.299Z,2.95
2022-11-15T09:23:57.045Z,3.55
2022-11-15T09:30:03.536Z,3.28
2022-11-15T09:32:57.514Z,3.17
2022-11-15T09:35:51.582Z,2.92
2022-11-15T09:38:45.053Z,3.55
2022-11-15T09:42:13.590Z,3.03
2022-11-15T09:45:24.607Z,3.15
2022-11-15T09:48:33.445Z,3.53
2022-11-15T09:51:37.540Z,3.53
2022-11-15T09:54:51.483Z,3.80
2022-11-15T09:57:21.308Z,3.63
2022-11-15T10:00:43.913Z,2.95
2022-11-15T10:03:22.848Z,3.50
2022-11-15T10:06:01.173Z,3.45
2022-11-15T10:08:52.763Z,3.35
2022-11-15T10:11:37.406Z,3.13
2022-11-15T10:14:20.348Z,2.60
2022-11-15T10:17:23.428Z,3.00
2022-11-15T10:20:11.642Z,2.85
2022-11-15T10:22:52.787Z,2.83
2022-11-15T10:25:31.355Z,3.10
2022-11-15T10:28:16.168Z,2.70
2022-11-15T10:30:53.501Z,3.30
2022-11-15T10:33:40.730Z,3.17
2022-11-15T10:36:27.437Z,3.22
2022-11-15T10:39:04.466Z,3.30
2022-11-15T10:41:45.857Z,3.00
2022-11-15T10:44:27.707Z,2.53
2022-11-15T10:47:28.205Z,3.17
2022-11-15T10:50:06.408Z,3.13
2022-11-15T10:52:53.326Z,2.80
2022-11-15T10:55:33.899Z,2.90
2022-11-15T10:58:12.775Z,2.58
2022-11-15T11:00:49.251Z,3.03
2022-11-15T11:03:40.861Z,2.60
2022-11-15T11:06:18.862Z,2.47
2022-11-15T11:09:26.622Z,3.00
2022-11-15T11:12:02.212Z,2.63
2022-11-15T11:14:40.670Z,2.53
2022-11-15T11:17:21.888Z,2.85
2022-11-15T11:20:06.627Z,2.72
2022-11-15T11:22:50.332Z,2.42
2022-11-15T11:25:38.915Z,2.50
2022-11-15T11:28:38.205Z,2.20
2022-11-15T11:31:26.345Z,2.17
2022-11-15T11:34:11.952Z,2.67
2022-11-15T11:36:55.877Z,2.10
2022-11-15T11:39:48.120Z,2.10
2022-11-15T11:42:38.101Z,2.00
2022-11-15T11:45:25.678Z,1.90
2022-11-15T11:48:08.000Z,1.77
2022-11-15T11:50:47.315Z,1.50
2022-11-15T11:53:31.525Z,1.60
2022-11-15T11:56:15.351Z,1.30
2022-11-15T11:58:54.154Z,1.30
2022-11-15T12:01:33.267Z,1.25
2022-11-15T12:04:16.896Z,1.20
2022-11-15T12:06:57.495Z,1.33
2022-11-15T12:09:39.903Z,1.30
2022-11-15T12:12:21.409Z,1.10
2022-11-15T12:15:02.351Z,1.15
2022-11-15T12:17:38.834Z,1.25
2022-11-15T12:20:24.257Z,1.27
2022-11-15T12:23:04.366Z,1.38
2022-11-15T12:25:57.099Z,1.00
2022-11-15T12:28:52.893Z,0.90
2022-11-15T12:31:44.627Z,1.10
2022-11-15T12:34:50.899Z,0.88
2022-11-15T12:38:01.675Z,1.10
2022-11-15T12:40:42.785Z,1.15
2022-11-15T12:43:41.524Z,1.00
2022-11-15T12:46:28.618Z,1.00
2022-11-15T12:49:07.585Z,0.90
2022-11-15T12:52:13.226Z,0.90
2022-11-15T12:55:37.724Z,0.90
2022-11-15T12:58:48.854Z,0.98
2022-11-15T13:02:00.201Z,1.17
2022-11-15T13:04:38.062Z,0.90
2022-11-15T13:07:33.537Z,1.38
2022-11-15T13:10:36.667Z,1.10
2022-11-15T13:13:14.889Z,1.05
2022-11-15T13:16:05.557Z,0.90
2022-11-15T13:18:43.982Z,0.95
2022-11-15T13:21:47.173Z,1.10
2022-11-15T13:24:24.980Z,1.08
2022-11-15T13:27:01.547Z,1.00
2022-11-15T13:29:37.030Z,0.80
2022-11-15T13:32:18.710Z,0.80
2022-11-15T13:34:56.120Z,0.85
2022-11-15T13:37:40.009Z,0.80
2022-11-15T13:40:30.041Z,0.98
2022-11-15T13:43:05.963Z,1.05
2022-11-15T13:45:41.917Z,0.90
2022-11-15T13:48:18.435Z,0.80
2022-11-15T13:50:56.069Z,0.80
2022-11-15T13:53:33.696Z,1.38
2022-11-15T13:56:10.382Z,1.00
2022-11-15T13:58:47.022Z,0.90
2022-11-15T14:01:25.683Z,0.90
2022-11-15T14:04:03.525Z,0.82
2022-11-15T14:06:49.808Z,0.90
2022-11-15T14:09:48.022Z,0.90
2022-11-15T14:12:37.982Z,0.85
2022-11-15T14:15:32.542Z,0.98
2022-11-15T14:18:08.768Z,0.80
2022-11-15T14:20:46.131Z,0.90
2022-11-15T14:23:30.547Z,1.00
2022-11-15T14:26:12.046Z,0.93
2022-11-15T14:28:47.517Z,0.90
2022-11-15T14:31:23.318Z,1.00
2022-11-15T14:33:59.307Z,1.17
2022-11-15T14:36:35.049Z,1.20
2022-11-15T14:39:12.340Z,1.10
2022-11-15T14:41:50.033Z,0.88
2022-11-15T14:44:26.344Z,1.10
2022-11-15T14:47:03.265Z,1.00
2022-11-15T14:49:39.759Z,0.90
2022-11-15T14:52:33.017Z,1.02
2022-11-15T14:55:17.015Z,0.93
2022-11-15T14:57:55.145Z,1.00
2022-11-15T15:00:35.200Z,0.80
2022-11-15T15:03:11.667Z,0.95
2022-11-15T15:05:48.778Z,1.02
2022-11-15T15:08:24.750Z,1.00
2022-11-15T15:11:00.770Z,0.98
2022-11-15T15:13:39.451Z,1.08
2022-11-15T15:16:15.778Z,0.80
2022-11-15T15:18:51.906Z,0.90
2022-11-15T15:21:37.206Z,1.17
2022-11-15T15:24:14.958Z,0.90
2022-11-15T15:26:52.408Z,1.17
2022-11-15T15:29:30.290Z,1.00
2022-11-15T15:32:06.674Z,1.10
2022-11-15T15:34:42.357Z,0.80
2022-11-15T15:37:29.881Z,0.98
2022-11-15T15:40:05.920Z,0.90
2022-11-15T15:42:41.895Z,0.75
2022-11-15T15:45:21.410Z,1.00
2022-11-15T15:47:57.509Z,0.98
2022-11-15T15:50:35.215Z,0.88
2022-11-15T15:53:11.259Z,0.82
2022-11-15T15:55:46.443Z,0.90
2022-11-15T15:58:21.901Z,0.93
2022-11-15T16:00:59.674Z,1.00
2022-11-15T16:03:36.010Z,1.20
2022-11-15T16:06:26.459Z,1.10
2022-11-15T16:09:15.205Z,0.98
2022-11-15T16:11:53.110Z,0.80
2022-11-15T16:14:31.125Z,0.85
2022-11-15T16:17:08.572Z,1.00
2022-11-15T16:19:44.495Z,0.98
2022-11-15T16:22:20.648Z,1.05
2022-11-15T16:24:56.474Z,1.00
2022-11-15T16:27:31.814Z,1.13
2022-11-15T16:30:07.569Z,1.10
2022-11-15T16:32:45.406Z,1.00
2022-11-15T16:35:22.891Z,1.10
2022-11-15T16:37:58.088Z,1.20
2022-11-15T16:40:42.258Z,1.20
2022-11-15T16:43:18.759Z,1.08
2022-11-15T16:45:56.688Z,1.17
2022-11-15T16:48:36.501Z,1.02
2022-11-15T16:51:12.801Z,0.90
2022-11-15T16:53:48.800Z,1.08
2022-11-15T16:56:29.692Z,1.00
2022-11-15T16:59:06.059Z,0.90
2022-11-15T17:01:48.359Z,0.90
2022-11-15T17:04:29.395Z,1.00
2022-11-15T17:07:05.877Z,1.10
2022-11-15T17:09:41.768Z,1.02
2022-11-15T17:12:18.648Z,1.00
2022-11-15T17:14:54.771Z,1.08
2022-11-15T17:17:30.822Z,0.80
2022-11-15T17:20:11.507Z,0.82
2022-11-15T17:22:46.987Z,1.10
2022-11-15T17:25:22.313Z,1.10
2022-11-15T17:27:58.310Z,1.33
2022-11-15T17:30:34.212Z,1.40
2022-11-15T17:33:10.993Z,1.00
2022-11-15T17:35:48.323Z,1.05
2022-11-15T17:38:25.855Z,0.73
2022-11-15T17:41:08.659Z,1.20
2022-11-15T17:43:44.681Z,1.30
2022-11-15T17:46:22.526Z,1.00
2022-11-15T17:49:00.031Z,1.00
2022-11-15T17:51:37.570Z,1.00
2022-11-15T17:54:17.553Z,1.17
2022-11-15T17:56:53.912Z,0.70
2022-11-15T17:59:29.876Z,1.00
2022-11-15T18:02:05.613Z,1.00
2022-11-15T18:04:41.921Z,1.02
2022-11-15T18:07:19.190Z,1.10
2022-11-15T18:09:55.378Z,0.80
2022-11-15T18:12:31.267Z,1.23
2022-11-15T18:15:06.465Z,1.05
2022-11-15T18:17:42.110Z,0.98
2022-11-15T18:20:17.843Z,0.80
2022-11-15T18:22:58.884Z,0.90
2022-11-15T18:25:34.797Z,1.10
2022-11-15T18:28:10.784Z,0.80
2022-11-15T18:30:46.854Z,1.00
2022-11-15T18:33:22.132Z,1.02
2022-11-15T18:36:04.895Z,0.80
2022-11-15T18:38:43.360Z,1.20
2022-11-15T18:41:22.302Z,1.17
2022-11-15T18:43:58.028Z,1.08
2022-11-15T18:46:34.839Z,1.00
2022-11-15T18:49:12.422Z,1.10
2022-11-15T18:51:48.064Z,1.00
2022-11-15T18:54:30.633Z,0.85
2022-11-15T18:57:07.146Z,1.00
2022-11-15T18:59:43.121Z,0.90
2022-11-15T19:02:18.520Z,1.25
2022-11-15T19:04:53.940Z,0.90
2022-11-15T19:07:29.830Z,0.90
2022-11-15T19:10:07.033Z,0.90
2022-11-15T19:12:42.677Z,1.13
2022-11-15T19:15:18.263Z,1.00
2022-11-15T19:17:55.006Z,0.88
2022-11-15T19:20:30.843Z,1.00
2022-11-15T19:23:06.870Z,0.90
2022-11-15T19:25:45.002Z,1.00
2022-11-15T19:28:20.952Z,0.90
2022-11-15T19:30:56.852Z,1.05
2022-11-15T19:33:33.107Z,1.00
2022-11-15T19:36:11.111Z,0.80
2022-11-15T19:38:47.158Z,0.98
2022-11-15T19:41:26.671Z,0.90
2022-11-15T19:44:02.129Z,1.08
2022-11-15T19:46:37.724Z,1.00
2022-11-15T19:49:15.592Z,0.90
2022-11-15T19:51:51.516Z,1.00
2022-11-15T19:54:27.500Z,1.00
2022-11-15T19:57:04.896Z,1.20
2022-11-15T19:59:40.831Z,1.13
2022-11-15T20:02:17.610Z,1.10
2022-11-15T20:04:53.330Z,1.00
2022-11-15T20:07:30.005Z,0.98
2022-11-15T20:10:05.940Z,1.10
2022-11-15T20:12:44.026Z,1.30
2022-11-15T20:15:20.193Z,1.05
2022-11-15T20:17:56.473Z,1.10
2022-11-15T20:20:32.270Z,1.23
2022-11-15T20:23:07.596Z,1.10
2022-11-15T20:25:43.909Z,1.20
2022-11-15T20:28:24.016Z,1.35
2022-11-15T20:31:01.369Z,1.08
2022-11-15T20:33:36.699Z,1.00
2022-11-15T20:36:15.155Z,1.25
2022-11-15T20:38:51.918Z,1.17
2022-11-15T20:41:27.547Z,0.98
2022-11-15T20:44:06.933Z,1.20
2022-11-15T20:46:42.782Z,1.27
2022-11-15T20:49:18.928Z,1.10
2022-11-15T20:51:55.680Z,1.10
2022-11-15T20:54:31.687Z,1.15
2022-11-15T20:57:08.246Z,1.20
2022-11-15T20:59:47.458Z,1.27
2022-11-15T21:02:23.355Z,1.00
2022-11-15T21:04:59.176Z,1.20
2022-11-15T21:07:35.317Z,1.20
2022-11-15T21:10:27.647Z,1.30
2022-11-15T21:13:03.048Z,1.15
2022-11-15T21:15:41.631Z,1.05
2022-11-15T21:18:17.990Z,1.20
2022-11-15T21:20:55.449Z,0.90
2022-11-15T21:23:31.834Z,1.00
2022-11-15T21:26:07.134Z,1.30
2022-11-15T21:28:43.606Z,1.20
2022-11-15T21:31:21.689Z,1.10
2022-11-15T21:33:57.632Z,1.10
2022-11-15T21:36:32.999Z,1.10
2022-11-15T21:39:09.153Z,1.30
2022-11-15T21:41:44.862Z,1.10
2022-11-15T21:44:20.610Z,1.30
2022-11-15T21:46:58.581Z,1.10
2022-11-15T21:49:35.714Z,1.23
2022-11-15T21:52:11.487Z,1.08
2022-11-15T21:54:47.377Z,1.30
2022-11-15T21:57:23.474Z,1.35
2022-11-15T22:00:20.991Z,0.90
2022-11-15T22:03:00.829Z,1.13
2022-11-15T22:05:36.314Z,1.10
2022-11-15T22:08:11.828Z,1.00
2022-11-15T22:10:51.282Z,1.10
2022-11-15T22:13:26.948Z,1.20
2022-11-15T22:16:03.078Z,1.13
2022-11-15T22:18:43.174Z,1.00
2022-11-15T22:21:20.183Z,1.10
2022-11-15T22:23:56.001Z,1.17
2022-11-15T22:26:31.890Z,0.93
2022-11-15T22:29:07.653Z,1.00
2022-11-15T22:31:42.796Z,1.10
2022-11-15T22:34:20.582Z,0.93
2022-11-15T22:39:53.246Z,0.80
2022-11-15T22:42:29.553Z,1.15
2022-11-15T22:45:05.716Z,0.93
2022-11-15T22:47:41.037Z,1.10
2022-11-15T22:50:19.033Z,1.00
2022-11-15T22:52:56.810Z,1.02
2022-11-15T22:55:32.345Z,1.10
2022-11-15T22:58:07.698Z,0.95
2022-11-15T23:00:43.355Z,1.00
2022-11-15T23:03:19.213Z,0.80
2022-11-15T23:05:58.483Z,0.80
2022-11-15T23:08:34.224Z,0.93
2022-11-15T23:11:25.140Z,1.02
2022-11-15T23:14:00.243Z,1.08
2022-11-15T23:16:38.683Z,1.20
2022-11-15T23:19:14.443Z,1.00
2022-11-15T23:22:07.563Z,1.05
2022-11-15T23:24:42.650Z,0.90
2022-11-15T23:27:21.618Z,1.15
2022-11-15T23:30:12.217Z,0.90
2022-11-15T23:33:02.836Z,0.80
2022-11-15T23:35:37.274Z,0.80
2022-11-15T23:38:14.253Z,0.73
2022-11-15T23:40:48.589Z,0.80
2022-11-15T23:43:24.419Z,0.80
2022-11-15T23:45:59.549Z,0.82
2022-11-15T23:48:35.412Z,0.80
2022-11-15T23:51:12.103Z,0.70
2022-11-15T23:53:49.210Z,0.98
2022-11-15T23:56:24.298Z,0.93
2022-11-15T23:58:59.514Z,0.90
